createdAt,value
2019-05-03T00:00:32.692Z,2.00
2019-05-03T00:01:32.679Z,2.30
2019-05-03T00:02:32.758Z,1.90
2019-05-03T00:03:32.663Z,2.00
2019-05-03T00:04:32.672Z,1.90
2019-05-03T00:05:32.647Z,1.70
2019-05-03T00:06:32.627Z,1.90
2019-05-03T00:07:32.615Z,1.90
2019-05-03T00:08:33.326Z,1.90
2019-05-03T00:09:32.632Z,1.60
2019-05-03T00:10:32.590Z,1.70
2019-05-03T00:11:32.750Z,1.80
2019-05-03T00:12:32.815Z,2.10
2019-05-03T00:13:32.651Z,1.80
2019-05-03T00:14:32.654Z,2.10
2019-05-03T00:15:32.522Z,1.80
2019-05-03T00:16:32.631Z,2.00
2019-05-03T00:17:32.556Z,1.70
2019-05-03T00:18:32.809Z,1.80
2019-05-03T00:19:32.819Z,1.90
2019-05-03T00:20:32.721Z,1.90
2019-05-03T00:21:32.741Z,2.00
2019-05-03T00:22:32.492Z,1.60
2019-05-03T00:23:32.538Z,1.80
2019-05-03T00:24:32.467Z,1.90
2019-05-03T00:25:32.712Z,1.80
2019-05-03T00:26:32.409Z,1.70
2019-05-03T00:27:32.406Z,1.80
2019-05-03T00:28:32.380Z,1.70
2019-05-03T00:29:32.635Z,1.80
2019-05-03T00:30:32.388Z,1.90
2019-05-03T00:31:32.348Z,1.90
2019-05-03T00:32:32.337Z,1.80
2019-05-03T00:33:32.448Z,1.90
2019-05-03T00:34:32.463Z,1.70
2019-05-03T00:35:32.396Z,1.70
2019-05-03T00:36:32.834Z,2.10
2019-05-03T00:37:32.744Z,1.80
2019-05-03T00:38:32.571Z,1.60
2019-05-03T00:39:32.578Z,1.80
2019-05-03T00:40:32.464Z,1.90
2019-05-03T00:41:32.249Z,1.90
2019-05-03T00:42:32.242Z,1.80
2019-05-03T00:43:32.245Z,1.60
2019-05-03T00:44:32.218Z,1.90
2019-05-03T00:45:32.250Z,1.80
2019-05-03T00:46:32.764Z,1.70
2019-05-03T00:47:32.883Z,1.70
2019-05-03T00:48:32.611Z,1.80
2019-05-03T00:49:32.186Z,1.70
2019-05-03T00:50:32.248Z,1.80
2019-05-03T00:51:32.131Z,2.10
2019-05-03T00:52:32.119Z,1.80
2019-05-03T00:53:32.124Z,1.90
2019-05-03T00:54:32.097Z,1.80
2019-05-03T00:55:32.761Z,1.70
2019-05-03T00:56:32.232Z,1.70
2019-05-03T00:57:32.427Z,1.80
2019-05-03T00:58:32.055Z,1.90
2019-05-03T00:59:32.637Z,1.80
2019-05-03T01:00:32.385Z,1.70
2019-05-03T01:01:32.179Z,1.80
2019-05-03T01:02:32.056Z,1.90
2019-05-03T01:03:32.604Z,1.70
2019-05-03T01:04:31.991Z,1.70
2019-05-03T01:05:33.134Z,1.80
2019-05-03T01:06:31.978Z,1.50
2019-05-03T01:07:32.096Z,1.80
2019-05-03T01:08:32.658Z,1.70
2019-05-03T01:09:31.933Z,1.60
2019-05-03T01:10:33.084Z,1.80
2019-05-03T01:11:32.417Z,1.70
2019-05-03T01:12:32.451Z,1.70
2019-05-03T01:13:32.187Z,1.90
2019-05-03T01:14:31.883Z,1.60
2019-05-03T01:15:32.043Z,1.70
2019-05-03T01:16:31.947Z,1.80
2019-05-03T01:17:31.850Z,1.90
2019-05-03T01:18:32.399Z,1.90
2019-05-03T01:19:32.074Z,1.50
2019-05-03T01:20:32.032Z,1.90
2019-05-03T01:21:31.842Z,1.80
2019-05-03T01:22:32.324Z,1.70
2019-05-03T01:23:32.560Z,1.60
2019-05-03T01:24:32.379Z,1.40
2019-05-03T01:25:35.218Z,1.70
2019-05-03T01:26:31.990Z,1.50
2019-05-03T01:27:32.648Z,1.70
2019-05-03T01:28:32.319Z,1.70
2019-05-03T01:29:32.344Z,1.80
2019-05-03T01:30:32.114Z,1.60
2019-05-03T01:31:31.967Z,1.70
2019-05-03T01:32:32.865Z,1.80
2019-05-03T01:33:32.154Z,1.80
2019-05-03T01:34:32.576Z,1.60
2019-05-03T01:35:32.317Z,1.60
2019-05-03T01:36:32.147Z,1.50
2019-05-03T01:37:32.067Z,1.60
2019-05-03T01:38:32.021Z,1.60
2019-05-03T01:39:31.788Z,1.60
2019-05-03T01:40:32.647Z,1.50
2019-05-03T01:41:32.359Z,1.60
2019-05-03T01:42:32.165Z,1.50
2019-05-03T01:43:31.911Z,1.50
2019-05-03T01:44:32.704Z,1.50
2019-05-03T01:45:31.944Z,1.50
2019-05-03T01:46:31.731Z,1.90
2019-05-03T01:47:32.575Z,1.60
2019-05-03T01:48:32.214Z,1.50
2019-05-03T01:49:32.062Z,1.60
2019-05-03T01:50:31.986Z,1.50
2019-05-03T01:51:32.707Z,1.70
2019-05-03T01:52:32.422Z,1.90
2019-05-03T01:53:32.248Z,1.60
2019-05-03T01:54:32.163Z,1.50
2019-05-03T01:55:43.533Z,1.80
2019-05-03T01:56:32.424Z,1.70
2019-05-03T01:57:32.432Z,1.60
2019-05-03T01:58:32.386Z,1.70
2019-05-03T01:59:32.051Z,1.70
2019-05-03T02:00:31.877Z,1.50
2019-05-03T02:01:31.651Z,1.70
2019-05-03T02:02:32.437Z,1.70
2019-05-03T02:03:32.525Z,1.70
2019-05-03T02:04:32.273Z,1.70
2019-05-03T02:05:32.046Z,1.70
2019-05-03T02:06:31.846Z,1.60
2019-05-03T02:07:31.684Z,1.50
2019-05-03T02:08:32.609Z,1.50
2019-05-03T02:09:32.232Z,1.70
2019-05-03T02:10:32.157Z,1.70
2019-05-03T02:11:32.601Z,1.60
2019-05-03T02:12:32.201Z,1.50
2019-05-03T02:13:32.133Z,1.60
2019-05-03T02:14:31.749Z,1.70
2019-05-03T02:15:32.659Z,2.10
2019-05-03T02:16:32.504Z,1.70
2019-05-03T02:17:31.905Z,1.80
2019-05-03T02:18:31.831Z,1.60
2019-05-03T02:19:32.680Z,1.60
2019-05-03T02:20:32.398Z,1.50
2019-05-03T02:21:32.202Z,1.30
2019-05-03T02:22:31.925Z,1.50
2019-05-03T02:23:31.931Z,1.60
2019-05-03T02:24:32.778Z,1.50
2019-05-03T02:25:32.334Z,1.90
2019-05-03T02:26:31.818Z,1.60
2019-05-03T02:27:32.572Z,1.40
2019-05-03T02:28:32.695Z,1.70
2019-05-03T02:29:32.580Z,1.60
2019-05-03T02:30:33.261Z,2.00
2019-05-03T02:31:32.774Z,1.60
2019-05-03T02:32:33.092Z,1.60
2019-05-03T02:33:32.905Z,1.60
2019-05-03T02:34:32.700Z,1.60
2019-05-03T02:35:33.181Z,1.80
2019-05-03T02:36:33.686Z,1.70
2019-05-03T02:37:33.002Z,1.50
2019-05-03T02:38:33.582Z,1.60
2019-05-03T02:39:33.353Z,1.80
2019-05-03T02:40:33.575Z,1.30
2019-05-03T02:41:30.939Z,1.60
2019-05-03T02:42:30.923Z,1.60
2019-05-03T02:43:30.938Z,1.70
2019-05-03T02:44:30.989Z,1.60
2019-05-03T02:45:30.884Z,1.60
2019-05-03T02:46:30.873Z,1.70
2019-05-03T02:47:30.872Z,1.50
2019-05-03T02:48:30.862Z,1.60
2019-05-03T02:49:30.880Z,1.70
2019-05-03T02:50:30.837Z,1.50
2019-05-03T02:51:30.840Z,1.80
2019-05-03T02:52:30.810Z,1.80
2019-05-03T02:53:30.838Z,1.70
2019-05-03T02:54:30.814Z,1.60
2019-05-03T02:55:30.778Z,1.50
2019-05-03T02:56:30.780Z,1.50
2019-05-03T02:57:30.755Z,1.60
2019-05-03T02:58:30.785Z,1.60
2019-05-03T02:59:30.763Z,1.70
2019-05-03T03:00:30.727Z,1.80
2019-05-03T03:01:30.756Z,1.40
2019-05-03T03:02:30.729Z,1.60
2019-05-03T03:03:30.686Z,1.40
2019-05-03T03:04:30.729Z,1.80
2019-05-03T03:05:30.673Z,1.60
2019-05-03T03:06:30.651Z,1.40
2019-05-03T03:07:30.697Z,1.70
2019-05-03T03:08:33.234Z,1.70
2019-05-03T03:09:31.649Z,1.70
2019-05-03T03:10:30.614Z,1.50
2019-05-03T03:11:30.602Z,1.60
2019-05-03T03:12:30.607Z,1.60
2019-05-03T03:13:30.582Z,1.70
2019-05-03T03:14:30.594Z,1.90
2019-05-03T03:15:30.580Z,1.60
2019-05-03T03:16:30.548Z,1.70
2019-05-03T03:17:30.537Z,1.80
2019-05-03T03:18:30.526Z,1.60
2019-05-03T03:19:30.545Z,1.50
2019-05-03T03:20:30.519Z,1.70
2019-05-03T03:21:30.488Z,1.50
2019-05-03T03:22:30.484Z,1.60
2019-05-03T03:23:30.469Z,1.70
2019-05-03T03:24:30.483Z,1.90
2019-05-03T03:25:30.480Z,1.60
2019-05-03T03:26:37.511Z,1.70
2019-05-03T03:27:31.428Z,1.60
2019-05-03T03:28:30.417Z,1.80
2019-05-03T03:29:30.402Z,1.90
2019-05-03T03:30:30.438Z,1.70
2019-05-03T03:31:30.401Z,1.70
2019-05-03T03:32:30.432Z,1.50
2019-05-03T03:33:30.374Z,1.60
2019-05-03T03:34:30.356Z,1.80
2019-05-03T03:35:30.710Z,1.90
2019-05-03T03:36:48.614Z,2.10
2019-05-03T03:37:31.316Z,1.80
2019-05-03T03:38:30.317Z,1.60
2019-05-03T03:39:30.307Z,1.70
2019-05-03T03:40:30.317Z,1.70
2019-05-03T03:41:30.276Z,1.90
2019-05-03T03:42:30.290Z,1.70
2019-05-03T03:43:30.263Z,1.80
2019-05-03T03:44:30.237Z,1.90
2019-05-03T03:45:30.230Z,1.70
2019-05-03T03:46:32.208Z,1.70
2019-05-03T03:47:30.207Z,1.90
2019-05-03T03:48:30.193Z,1.80
2019-05-03T03:49:30.204Z,1.80
2019-05-03T03:50:30.202Z,2.00
2019-05-03T03:51:30.189Z,1.80
2019-05-03T03:52:30.158Z,1.90
2019-05-03T03:53:30.143Z,1.90
2019-05-03T03:54:30.131Z,1.70
2019-05-03T03:55:30.122Z,1.90
2019-05-03T03:56:30.148Z,1.90
2019-05-03T03:57:30.098Z,2.00
2019-05-03T03:58:30.088Z,1.70
2019-05-03T03:59:30.091Z,2.00
2019-05-03T04:00:30.064Z,1.80
2019-05-03T04:01:30.087Z,1.70
2019-05-03T04:02:30.047Z,2.00
2019-05-03T04:03:30.031Z,1.80
2019-05-03T04:04:30.021Z,1.70
2019-05-03T04:05:30.007Z,2.10
2019-05-03T04:06:30.035Z,1.70
2019-05-03T04:07:29.988Z,2.10
2019-05-03T04:08:29.987Z,1.70
2019-05-03T04:09:30.831Z,2.10
2019-05-03T04:10:29.984Z,1.80
2019-05-03T04:11:29.944Z,2.00
2019-05-03T04:12:29.974Z,1.80
2019-05-03T04:13:29.922Z,1.90
2019-05-03T04:14:29.920Z,1.80
2019-05-03T04:15:29.918Z,1.70
2019-05-03T04:16:29.901Z,1.80
2019-05-03T04:17:29.902Z,1.90
2019-05-03T04:18:29.923Z,2.10
2019-05-03T04:19:29.858Z,1.70
2019-05-03T04:20:29.847Z,1.90
2019-05-03T04:21:29.831Z,1.80
2019-05-03T04:22:29.853Z,1.90
2019-05-03T04:23:29.814Z,1.90
2019-05-03T04:24:29.811Z,1.90
2019-05-03T04:25:29.799Z,1.90
2019-05-03T04:26:30.240Z,1.90
2019-05-03T04:27:29.806Z,1.70
2019-05-03T04:28:29.773Z,2.20
2019-05-03T04:29:29.799Z,1.80
2019-05-03T04:30:29.733Z,1.90
2019-05-03T04:31:29.725Z,2.10
2019-05-03T04:32:29.757Z,1.80
2019-05-03T04:33:29.739Z,2.20
2019-05-03T04:34:29.694Z,1.90
2019-05-03T04:35:29.716Z,2.10
2019-05-03T04:36:29.674Z,1.50
2019-05-03T04:37:29.693Z,2.10
2019-05-03T04:38:30.339Z,2.00
2019-05-03T04:39:29.657Z,2.30
2019-05-03T04:40:29.652Z,2.20
2019-05-03T04:41:29.615Z,2.50
2019-05-03T04:42:29.635Z,2.50
2019-05-03T04:43:29.618Z,1.90
2019-05-03T04:44:29.587Z,2.50
2019-05-03T04:45:29.583Z,2.50
2019-05-03T04:46:29.562Z,2.40
2019-05-03T04:47:29.556Z,2.70
2019-05-03T04:48:29.599Z,2.30
2019-05-03T04:49:29.531Z,2.40
2019-05-03T04:50:29.525Z,2.30
2019-05-03T04:51:29.503Z,2.20
2019-05-03T04:52:29.493Z,2.10
2019-05-03T04:53:29.516Z,2.40
2019-05-03T04:54:29.475Z,2.40
2019-05-03T04:55:29.466Z,2.10
2019-05-03T04:56:29.477Z,2.50
2019-05-03T04:57:39.943Z,2.60
2019-05-03T04:58:30.457Z,2.50
2019-05-03T04:59:29.421Z,2.20
2019-05-03T05:00:29.405Z,2.50
2019-05-03T05:01:29.400Z,2.30
2019-05-03T05:02:29.389Z,2.30
2019-05-03T05:03:29.412Z,2.10
2019-05-03T05:04:29.364Z,2.50
2019-05-03T05:05:29.350Z,2.50
2019-05-03T05:06:29.343Z,2.00
2019-05-03T05:07:29.354Z,2.50
2019-05-03T05:08:29.352Z,2.00
2019-05-03T05:09:29.336Z,2.50
2019-05-03T05:10:29.304Z,2.80
2019-05-03T05:11:29.288Z,2.50
2019-05-03T05:12:29.294Z,2.70
2019-05-03T05:13:29.281Z,2.40
2019-05-03T05:14:29.290Z,2.30
2019-05-03T05:15:29.250Z,2.30
2019-05-03T05:16:29.236Z,2.30
2019-05-03T05:17:29.219Z,2.40
2019-05-03T05:18:29.214Z,2.80
2019-05-03T05:19:29.234Z,2.50
2019-05-03T05:20:29.188Z,2.40
2019-05-03T05:21:29.180Z,2.60
2019-05-03T05:22:29.180Z,2.30
2019-05-03T05:23:29.155Z,2.40
2019-05-03T05:24:29.191Z,2.10
2019-05-03T05:25:29.146Z,2.40
2019-05-03T05:26:29.119Z,2.70
2019-05-03T05:27:29.112Z,2.00
2019-05-03T05:28:29.101Z,2.10
2019-05-03T05:29:29.124Z,2.10
2019-05-03T05:30:29.079Z,1.90
2019-05-03T05:31:29.072Z,2.40
2019-05-03T05:32:29.069Z,2.00
2019-05-03T05:33:29.053Z,2.30
2019-05-03T05:34:29.070Z,2.00
2019-05-03T05:35:29.026Z,2.10
2019-05-03T05:36:29.011Z,2.10
2019-05-03T05:37:28.999Z,2.50
2019-05-03T05:38:28.997Z,2.00
2019-05-03T05:39:29.017Z,2.50
2019-05-03T05:40:29.022Z,2.20
2019-05-03T05:41:29.023Z,2.50
2019-05-03T05:42:28.985Z,2.40
2019-05-03T05:43:28.933Z,2.40
2019-05-03T05:44:28.997Z,2.20
2019-05-03T05:45:28.924Z,2.20
2019-05-03T05:46:28.925Z,2.20
2019-05-03T05:47:28.889Z,2.20
2019-05-03T05:48:28.880Z,2.00
2019-05-03T05:49:28.879Z,2.50
2019-05-03T05:50:28.891Z,2.50
2019-05-03T05:51:28.856Z,2.90
2019-05-03T05:52:28.836Z,2.60
2019-05-03T05:53:28.829Z,2.50
2019-05-03T05:54:28.826Z,3.00
2019-05-03T05:55:28.843Z,2.90
2019-05-03T05:56:28.792Z,2.40
2019-05-03T05:57:28.792Z,2.70
2019-05-03T05:58:28.770Z,2.40
2019-05-03T05:59:28.761Z,2.60
2019-05-03T06:00:28.872Z,2.40
2019-05-03T06:01:28.747Z,2.90
2019-05-03T06:02:28.731Z,2.60
2019-05-03T06:03:28.727Z,2.40
2019-05-03T06:04:28.711Z,2.70
2019-05-03T06:05:28.727Z,2.30
2019-05-03T06:06:28.688Z,2.40
2019-05-03T06:07:28.689Z,2.60
2019-05-03T06:08:28.676Z,2.70
2019-05-03T06:09:28.648Z,2.50
2019-05-03T06:10:28.680Z,2.80
2019-05-03T06:11:28.634Z,2.60
2019-05-03T06:12:28.621Z,2.70
2019-05-03T06:13:28.610Z,2.40
2019-05-03T06:14:28.607Z,2.90
2019-05-03T06:15:28.595Z,2.70
2019-05-03T06:16:28.603Z,2.80
2019-05-03T06:17:28.570Z,2.20
2019-05-03T06:18:28.558Z,2.50
2019-05-03T06:19:28.551Z,2.80
2019-05-03T06:20:28.535Z,2.10
2019-05-03T06:21:28.554Z,2.70
2019-05-03T06:22:28.509Z,2.70
2019-05-03T06:23:28.498Z,3.20
2019-05-03T06:24:28.492Z,2.20
2019-05-03T06:25:28.514Z,2.60
2019-05-03T06:26:28.548Z,2.80
2019-05-03T06:27:28.459Z,2.60
2019-05-03T06:28:28.448Z,2.40
2019-05-03T06:29:28.434Z,2.30
2019-05-03T06:30:28.424Z,2.80
2019-05-03T06:31:28.443Z,2.40
2019-05-03T06:32:28.412Z,2.70
2019-05-03T06:33:28.397Z,2.20
2019-05-03T06:34:28.382Z,2.70
2019-05-03T06:35:28.370Z,2.80
2019-05-03T06:36:28.387Z,2.90
2019-05-03T06:37:28.349Z,2.50
2019-05-03T06:38:28.336Z,2.60
2019-05-03T06:39:28.328Z,2.60
2019-05-03T06:40:28.316Z,2.70
2019-05-03T06:41:28.331Z,2.40
2019-05-03T06:42:28.299Z,2.40
2019-05-03T06:43:28.276Z,2.50
2019-05-03T06:44:28.778Z,2.60
2019-05-03T06:45:28.255Z,2.90
2019-05-03T06:46:30.258Z,2.90
2019-05-03T06:47:28.596Z,3.20
2019-05-03T06:48:31.975Z,2.30
2019-05-03T06:49:28.219Z,2.50
2019-05-03T06:50:29.016Z,3.10
2019-05-03T06:51:28.205Z,2.70
2019-05-03T06:52:29.404Z,2.30
2019-05-03T06:53:28.178Z,2.50
2019-05-03T06:54:29.988Z,2.30
2019-05-03T06:55:28.160Z,2.50
2019-05-03T06:56:29.225Z,2.30
2019-05-03T06:57:28.162Z,2.30
2019-05-03T06:58:33.496Z,2.70
2019-05-03T06:59:29.111Z,2.70
2019-05-03T07:00:28.091Z,2.40
2019-05-03T07:01:28.097Z,2.80
2019-05-03T07:02:28.641Z,2.60
2019-05-03T07:03:28.079Z,2.50
2019-05-03T07:04:28.053Z,2.60
2019-05-03T07:05:28.039Z,2.60
2019-05-03T07:06:39.413Z,2.60
2019-05-03T07:07:29.048Z,2.00
2019-05-03T07:08:28.020Z,2.50
2019-05-03T07:09:27.999Z,2.30
2019-05-03T07:10:27.998Z,2.60
2019-05-03T07:11:27.979Z,2.60
2019-05-03T07:12:28.013Z,2.30
2019-05-03T07:13:27.951Z,2.30
2019-05-03T07:14:27.941Z,2.30
2019-05-03T07:15:27.934Z,2.30
2019-05-03T07:16:27.925Z,1.90
2019-05-03T07:17:27.945Z,2.50
2019-05-03T07:18:27.897Z,2.00
2019-05-03T07:19:27.887Z,2.20
2019-05-03T07:20:27.873Z,2.00
2019-05-03T07:21:27.881Z,2.20
2019-05-03T07:22:27.853Z,2.50
2019-05-03T07:23:27.868Z,2.20
2019-05-03T07:24:27.831Z,2.40
2019-05-03T07:25:27.827Z,1.90
2019-05-03T07:26:27.815Z,2.10
2019-05-03T07:27:27.811Z,2.30
2019-05-03T07:28:27.819Z,2.00
2019-05-03T07:29:27.778Z,2.30
2019-05-03T07:30:27.760Z,2.30
2019-05-03T07:31:27.755Z,2.50
2019-05-03T07:32:27.747Z,2.10
2019-05-03T07:33:27.763Z,1.80
2019-05-03T07:34:27.722Z,2.30
2019-05-03T07:35:27.712Z,2.00
2019-05-03T07:36:28.446Z,1.90
2019-05-03T07:37:27.704Z,2.20
2019-05-03T07:38:27.711Z,2.10
2019-05-03T07:39:27.670Z,2.00
2019-05-03T07:40:27.661Z,2.10
2019-05-03T07:41:27.648Z,1.80
2019-05-03T07:42:27.635Z,2.20
2019-05-03T07:43:27.650Z,1.90
2019-05-03T07:44:27.635Z,2.20
2019-05-03T07:45:27.600Z,2.10
2019-05-03T07:46:27.600Z,1.80
2019-05-03T07:47:27.576Z,1.90
2019-05-03T07:48:27.612Z,2.10
2019-05-03T07:49:27.571Z,2.10
2019-05-03T07:50:27.554Z,2.00
2019-05-03T07:51:27.551Z,2.00
2019-05-03T07:52:27.534Z,2.20
2019-05-03T07:53:27.559Z,1.60
2019-05-03T07:54:27.510Z,2.30
2019-05-03T07:55:27.499Z,1.90
2019-05-03T07:56:27.483Z,2.60
2019-05-03T07:57:27.477Z,2.00
2019-05-03T07:58:27.459Z,2.30
2019-05-03T07:59:27.488Z,2.00
2019-05-03T08:00:27.463Z,2.00
2019-05-03T08:01:27.435Z,2.20
2019-05-03T08:02:27.738Z,1.90
2019-05-03T08:03:27.453Z,2.10
2019-05-03T08:04:27.402Z,2.20
2019-05-03T08:05:27.382Z,2.10
2019-05-03T08:06:27.381Z,1.70
2019-05-03T08:07:27.359Z,2.00
2019-05-03T08:08:27.352Z,1.90
2019-05-03T08:09:27.408Z,2.00
2019-05-03T08:10:27.325Z,1.80
2019-05-03T08:11:27.324Z,2.00
2019-05-03T08:12:27.305Z,1.80
2019-05-03T08:13:27.302Z,1.80
2019-05-03T08:14:27.316Z,2.10
2019-05-03T08:15:27.286Z,2.20
2019-05-03T08:16:27.270Z,1.90
2019-05-03T08:17:27.260Z,1.80
2019-05-03T08:18:27.250Z,1.80
2019-05-03T08:19:27.303Z,1.80
2019-05-03T08:20:27.219Z,1.90
2019-05-03T08:21:27.207Z,1.80
2019-05-03T08:22:27.207Z,2.20
2019-05-03T08:23:30.171Z,1.50
2019-05-03T08:24:27.208Z,1.90
2019-05-03T08:25:27.165Z,1.70
2019-05-03T08:26:27.170Z,1.90
2019-05-03T08:27:27.153Z,1.90
2019-05-03T08:28:27.136Z,1.70
2019-05-03T08:29:27.150Z,2.10
2019-05-03T08:30:27.112Z,1.70
2019-05-03T08:31:27.115Z,1.90
2019-05-03T08:32:27.101Z,1.90
2019-05-03T08:33:27.077Z,1.90
2019-05-03T08:34:27.104Z,1.90
2019-05-03T08:35:27.059Z,1.60
2019-05-03T08:36:27.047Z,1.90
2019-05-03T08:37:28.073Z,1.80
2019-05-03T08:38:27.022Z,1.90
2019-05-03T08:39:27.044Z,1.80
2019-05-03T08:40:27.042Z,1.80
2019-05-03T08:41:26.994Z,1.70
2019-05-03T08:42:26.990Z,1.60
2019-05-03T08:43:26.964Z,1.70
2019-05-03T08:44:26.954Z,1.90
2019-05-03T08:45:26.986Z,1.70
2019-05-03T08:46:26.935Z,1.90
2019-05-03T08:47:26.922Z,2.00
2019-05-03T08:48:26.915Z,2.10
2019-05-03T08:49:26.909Z,1.80
2019-05-03T08:50:26.918Z,1.80
2019-05-03T08:51:26.879Z,1.80
2019-05-03T08:52:26.872Z,1.90
2019-05-03T08:53:26.865Z,1.80
2019-05-03T08:54:26.853Z,1.90
2019-05-03T08:55:26.871Z,2.00
2019-05-03T08:56:26.838Z,1.80
2019-05-03T08:57:26.830Z,1.80
2019-05-03T08:58:26.805Z,1.90
2019-05-03T08:59:32.404Z,1.70
2019-05-03T09:00:27.808Z,1.70
2019-05-03T09:01:26.772Z,1.80
2019-05-03T09:02:26.756Z,1.70
2019-05-03T09:03:26.756Z,1.60
2019-05-03T09:04:36.274Z,1.90
2019-05-03T09:05:27.751Z,1.70
2019-05-03T09:06:26.713Z,1.60
2019-05-03T09:07:26.717Z,1.80
2019-05-03T09:08:26.698Z,1.70
2019-05-03T09:09:26.683Z,1.80
2019-05-03T09:10:26.713Z,1.90
2019-05-03T09:11:33.937Z,2.00
2019-05-03T09:12:27.651Z,1.50
2019-05-03T09:13:26.649Z,1.70
2019-05-03T09:14:38.745Z,1.80
2019-05-03T09:15:27.649Z,1.70
2019-05-03T09:16:26.616Z,2.40
2019-05-03T09:17:26.598Z,1.80
2019-05-03T09:18:26.603Z,1.80
2019-05-03T09:19:26.582Z,2.00
2019-05-03T09:20:26.610Z,1.70
2019-05-03T09:21:26.559Z,1.60
2019-05-03T09:22:26.543Z,2.00
2019-05-03T09:23:26.532Z,1.70
2019-05-03T09:24:26.518Z,1.90
2019-05-03T09:25:26.544Z,1.50
2019-05-03T09:26:29.225Z,1.50
2019-05-03T09:27:26.485Z,1.70
2019-05-03T09:28:29.184Z,1.80
2019-05-03T09:29:26.475Z,1.90
2019-05-03T09:30:26.458Z,1.50
2019-05-03T09:31:26.496Z,1.50
2019-05-03T09:32:26.429Z,1.70
2019-05-03T09:33:26.424Z,1.70
2019-05-03T09:34:26.409Z,1.60
2019-05-03T09:35:32.068Z,1.70
2019-05-03T09:36:27.431Z,1.80
2019-05-03T09:37:26.382Z,1.50
2019-05-03T09:38:26.370Z,1.80
2019-05-03T09:39:26.360Z,1.60
2019-05-03T09:40:26.341Z,1.50
2019-05-03T09:41:26.359Z,1.60
2019-05-03T09:42:26.316Z,1.70
2019-05-03T09:43:26.307Z,1.60
2019-05-03T09:44:26.303Z,1.50
2019-05-03T09:45:26.299Z,1.60
2019-05-03T09:46:26.698Z,1.60
2019-05-03T09:47:26.269Z,1.70
2019-05-03T09:48:26.255Z,1.50
2019-05-03T09:49:26.243Z,1.50
2019-05-03T09:50:26.235Z,1.40
2019-05-03T09:51:26.253Z,1.70
2019-05-03T09:52:26.219Z,1.40
2019-05-03T09:53:26.247Z,1.40
2019-05-03T09:54:26.190Z,1.60
2019-05-03T09:55:26.185Z,1.60
2019-05-03T09:56:26.187Z,1.70
2019-05-03T09:57:26.187Z,1.40
2019-05-03T09:58:26.464Z,1.70
2019-05-03T09:59:26.147Z,1.40
2019-05-03T10:00:26.128Z,1.70
2019-05-03T10:01:26.114Z,1.70
2019-05-03T10:02:26.130Z,1.70
2019-05-03T10:03:26.102Z,1.70
2019-05-03T10:04:26.080Z,1.40
2019-05-03T10:05:26.078Z,1.50
2019-05-03T10:06:26.063Z,1.70
2019-05-03T10:07:26.082Z,1.60
2019-05-03T10:08:26.050Z,1.60
2019-05-03T10:09:26.407Z,1.50
2019-05-03T10:10:26.017Z,1.50
2019-05-03T10:11:26.005Z,1.50
2019-05-03T10:12:26.027Z,1.60
2019-05-03T10:13:27.144Z,1.60
2019-05-03T10:14:25.979Z,1.40
2019-05-03T10:15:26.114Z,1.60
2019-05-03T10:16:25.946Z,1.40
2019-05-03T10:17:25.975Z,1.30
2019-05-03T10:18:25.932Z,1.40
2019-05-03T10:19:37.108Z,1.70
2019-05-03T10:20:26.920Z,1.70
2019-05-03T10:21:25.900Z,1.40
2019-05-03T10:22:25.911Z,1.80
2019-05-03T10:23:25.884Z,1.70
2019-05-03T10:24:25.861Z,1.40
2019-05-03T10:25:25.856Z,1.40
2019-05-03T10:26:25.838Z,1.30
2019-05-03T10:27:25.872Z,1.50
2019-05-03T10:28:25.825Z,1.40
2019-05-03T10:29:25.804Z,1.40
2019-05-03T10:30:25.791Z,1.40
2019-05-03T10:31:25.791Z,1.70
2019-05-03T10:32:25.779Z,1.40
2019-05-03T10:33:26.165Z,1.60
2019-05-03T10:34:25.754Z,1.30
2019-05-03T10:35:25.756Z,1.30
2019-05-03T10:36:25.740Z,1.30
2019-05-03T10:37:25.717Z,1.60
2019-05-03T10:38:25.754Z,1.40
2019-05-03T10:39:26.313Z,1.40
2019-05-03T10:40:25.704Z,1.60
2019-05-03T10:41:25.681Z,1.70
2019-05-03T10:42:25.672Z,1.50
2019-05-03T10:43:25.685Z,1.40
2019-05-03T10:44:25.651Z,1.30
2019-05-03T10:45:27.958Z,1.50
2019-05-03T10:46:25.630Z,1.40
2019-05-03T10:47:25.633Z,1.30
2019-05-03T10:48:25.629Z,1.40
2019-05-03T10:49:25.593Z,1.50
2019-05-03T10:50:25.592Z,1.60
2019-05-03T10:51:25.587Z,1.20
2019-05-03T10:52:25.844Z,1.60
2019-05-03T10:53:25.573Z,1.50
2019-05-03T10:54:25.568Z,1.40
2019-05-03T10:55:25.525Z,1.20
2019-05-03T10:56:26.879Z,1.40
2019-05-03T10:57:25.502Z,1.20
2019-05-03T10:58:25.541Z,1.40
2019-05-03T10:59:25.481Z,1.60
2019-05-03T11:00:46.357Z,1.20
2019-05-03T11:01:26.461Z,1.70
2019-05-03T11:02:25.462Z,1.40
2019-05-03T11:03:25.437Z,1.50
2019-05-03T11:04:25.476Z,1.50
2019-05-03T11:05:25.412Z,1.50
2019-05-03T11:06:25.566Z,1.60
2019-05-03T11:07:25.758Z,1.30
2019-05-03T11:08:25.384Z,1.10
2019-05-03T11:09:26.017Z,1.40
2019-05-03T11:10:25.415Z,1.40
2019-05-03T11:11:25.919Z,1.30
2019-05-03T11:12:25.554Z,1.30
2019-05-03T11:13:26.470Z,1.20
2019-05-03T11:14:25.598Z,1.30
2019-05-03T11:15:25.922Z,1.30
2019-05-03T11:16:25.545Z,1.60
2019-05-03T11:17:25.720Z,1.40
2019-05-03T11:18:25.354Z,1.20
2019-05-03T11:19:25.558Z,1.30
2019-05-03T11:20:29.225Z,1.40
2019-05-03T11:21:30.542Z,1.40
2019-05-03T11:22:25.429Z,1.30
2019-05-03T11:23:25.271Z,1.60
2019-05-03T11:24:27.524Z,1.20
2019-05-03T11:25:25.905Z,1.40
2019-05-03T11:26:25.380Z,1.40
2019-05-03T11:27:25.179Z,1.40
2019-05-03T11:28:25.170Z,1.40
2019-05-03T11:29:25.155Z,1.40
2019-05-03T11:30:25.183Z,1.50
2019-05-03T11:31:25.152Z,1.40
2019-05-03T11:32:25.586Z,1.40
2019-05-03T11:33:25.112Z,1.30
2019-05-03T11:34:25.402Z,1.50
2019-05-03T11:35:25.091Z,1.50
2019-05-03T11:36:25.360Z,1.20
2019-05-03T11:37:25.194Z,1.50
2019-05-03T11:38:25.473Z,1.50
2019-05-03T11:39:25.194Z,1.30
2019-05-03T11:40:25.277Z,1.10
2019-05-03T11:41:32.007Z,1.50
2019-05-03T11:42:26.022Z,1.20
2019-05-03T11:43:24.996Z,1.30
2019-05-03T11:44:24.995Z,1.20
2019-05-03T11:45:25.014Z,1.40
2019-05-03T11:46:24.969Z,1.40
2019-05-03T11:47:27.536Z,1.40
2019-05-03T11:48:25.362Z,1.30
2019-05-03T11:49:25.485Z,1.20
2019-05-03T11:50:25.491Z,1.40
2019-05-03T11:51:24.945Z,1.20
2019-05-03T11:52:25.816Z,1.50
2019-05-03T11:53:25.222Z,1.40
2019-05-03T11:54:25.117Z,1.40
2019-05-03T11:55:26.775Z,1.60
2019-05-03T11:56:25.037Z,1.40
2019-05-03T11:57:26.299Z,1.20
2019-05-03T11:58:27.126Z,1.20
2019-05-03T11:59:25.413Z,1.20
2019-05-03T12:00:25.331Z,1.10
2019-05-03T12:01:25.646Z,1.50
2019-05-03T12:02:24.874Z,1.20
2019-05-03T12:03:25.100Z,1.20
2019-05-03T12:04:25.052Z,1.30
2019-05-03T12:05:24.758Z,1.30
2019-05-03T12:06:24.996Z,1.20
2019-05-03T12:07:36.517Z,1.30
2019-05-03T12:08:25.724Z,1.30
2019-05-03T12:09:24.716Z,1.20
2019-05-03T12:10:36.729Z,1.30
2019-05-03T12:11:25.723Z,1.50
2019-05-03T12:12:24.711Z,1.20
2019-05-03T12:13:24.754Z,1.40
2019-05-03T12:14:24.663Z,1.20
2019-05-03T12:15:24.646Z,1.40
2019-05-03T12:16:59.942Z,1.20
2019-05-03T12:17:29.006Z,1.10
2019-05-03T12:18:25.431Z,1.40
2019-05-03T12:19:30.451Z,1.40
2019-05-03T12:20:28.734Z,1.20
2019-05-03T12:21:27.449Z,1.50
2019-05-03T12:22:26.057Z,1.40
2019-05-03T12:23:25.771Z,1.30
2019-05-03T12:24:26.750Z,1.30
2019-05-03T12:25:26.120Z,1.10
2019-05-03T12:26:26.003Z,1.30
2019-05-03T12:27:25.521Z,1.30
2019-05-03T12:28:25.665Z,1.40
2019-05-03T12:29:24.665Z,1.30
2019-05-03T12:30:27.438Z,1.30
2019-05-03T12:31:36.235Z,1.40
2019-05-03T12:32:25.473Z,1.00
2019-05-03T12:33:26.057Z,1.10
2019-05-03T12:34:25.591Z,1.40
2019-05-03T12:35:24.764Z,1.10
2019-05-03T12:36:24.824Z,1.10
2019-05-03T12:37:24.509Z,1.50
2019-05-03T12:38:25.531Z,1.50
2019-05-03T12:39:30.039Z,1.20
2019-05-03T12:40:25.631Z,1.20
2019-05-03T12:41:25.420Z,1.10
2019-05-03T12:42:25.567Z,1.20
2019-05-03T12:43:25.662Z,1.30
2019-05-03T12:44:24.760Z,1.30
2019-05-03T12:45:24.864Z,1.20
2019-05-03T12:46:26.204Z,1.30
2019-05-03T12:47:25.187Z,1.00
2019-05-03T12:48:24.633Z,1.30
2019-05-03T12:49:24.968Z,1.30
2019-05-03T12:50:25.165Z,1.30
2019-05-03T12:51:25.135Z,1.30
2019-05-03T12:52:26.736Z,1.20
2019-05-03T12:53:24.682Z,1.40
2019-05-03T12:54:24.559Z,1.30
2019-05-03T12:55:24.753Z,1.60
2019-05-03T12:56:32.105Z,1.10
2019-05-03T12:57:25.214Z,1.50
2019-05-03T12:58:25.359Z,1.00
2019-05-03T12:59:26.644Z,1.60
2019-05-03T13:00:25.117Z,1.40
2019-05-03T13:01:25.104Z,1.00
2019-05-03T13:02:25.164Z,1.30
2019-05-03T13:03:24.606Z,1.40
2019-05-03T13:04:24.809Z,1.20
2019-05-03T13:05:24.904Z,1.40
2019-05-03T13:06:25.454Z,1.30
2019-05-03T13:07:24.116Z,1.30
2019-05-03T13:08:24.074Z,1.50
2019-05-03T13:09:25.210Z,1.40
2019-05-03T13:10:26.471Z,1.10
2019-05-03T13:11:25.174Z,1.30
2019-05-03T13:12:25.331Z,1.30
2019-05-03T13:13:24.999Z,1.10
2019-05-03T13:14:24.931Z,1.30
2019-05-03T13:15:24.506Z,1.30
2019-05-03T13:16:24.701Z,0.90
2019-05-03T13:17:24.610Z,1.30
2019-05-03T13:18:25.205Z,1.30